sensor_id;sensor_type;location;lat;lon;timestamp;temperature;humidity
9311;DHT22;4694;52.464;13.480;2023-12-20T00:00:20;6.80;99.90
9311;DHT22;4694;52.464;13.480;2023-12-20T00:02:46;6.80;99.90
9311;DHT22;4694;52.464;13.480;2023-12-20T00:05:13;6.80;99.90
9311;DHT22;4694;52.464;13.480;2023-12-20T00:07:40;6.80;99.90
9311;DHT22;4694;52.464;13.480;2023-12-20T00:10:07;6.50;99.90
9311;DHT22;4694;52.464;13.480;2023-12-20T00:12:34;6.80;99.90
9311;DHT22;4694;52.464;13.480;2023-12-20T00:15:02;6.80;99.90
9311;DHT22;4694;52.464;13.480;2023-12-20T00:17:29;6.80;99.90
9311;DHT22;4694;52.464;13.480;2023-12-20T00:19:55;6.80;99.90
9311;DHT22;4694;52.464;13.480;2023-12-20T00:22:22;6.80;99.90
9311;DHT22;4694;52.464;13.480;2023-12-20T00:24:48;6.90;99.90
9311;DHT22;4694;52.464;13.480;2023-12-20T00:27:15;6.80;99.90
9311;DHT22;4694;52.464;13.480;2023-12-20T00:29:41;6.80;99.90
9311;DHT22;4694;52.464;13.480;2023-12-20T00:32:14;6.90;99.90
9311;DHT22;4694;52.464;13.480;2023-12-20T00:34:41;6.80;99.90
9311;DHT22;4694;52.464;13.480;2023-12-20T00:37:07;6.80;99.90
9311;DHT22;4694;52.464;13.480;2023-12-20T00:39:34;6.80;99.90
9311;DHT22;4694;52.464;13.480;2023-12-20T00:42:00;6.80;99.90
9311;DHT22;4694;52.464;13.480;2023-12-20T00:44:27;6.80;99.90
9311;DHT22;4694;52.464;13.480;2023-12-20T00:46:54;6.80;99.90
9311;DHT22;4694;52.464;13.480;2023-12-20T00:49:22;6.80;99.90
9311;DHT22;4694;52.464;13.480;2023-12-20T00:51:48;6.80;99.90
9311;DHT22;4694;52.464;13.480;2023-12-20T00:54:16;6.80;99.90
9311;DHT22;4694;52.464;13.480;2023-12-20T00:56:42;6.80;99.90
9311;DHT22;4694;52.464;13.480;2023-12-20T00:59:09;6.80;99.90
9311;DHT22;4694;52.464;13.480;2023-12-20T01:01:36;6.80;99.90
9311;DHT22;4694;52.464;13.480;2023-12-20T01:04:04;6.80;99.90
9311;DHT22;4694;52.464;13.480;2023-12-20T01:06:32;6.80;99.90
9311;DHT22;4694;52.464;13.480;2023-12-20T01:08:58;6.80;99.90
9311;DHT22;4694;52.464;13.480;2023-12-20T01:11:25;6.90;99.90
9311;DHT22;4694;52.464;13.480;2023-12-20T01:13:51;6.70;99.90
9311;DHT22;4694;52.464;13.480;2023-12-20T01:16:18;6.80;99.90
9311;DHT22;4694;52.464;13.480;2023-12-20T01:18:44;6.70;99.90
9311;DHT22;4694;52.464;13.480;2023-12-20T01:21:12;6.80;99.90
9311;DHT22;4694;52.464;13.480;2023-12-20T01:23:40;6.90;99.90
9311;DHT22;4694;52.464;13.480;2023-12-20T01:26:07;6.80;99.90
9311;DHT22;4694;52.464;13.480;2023-12-20T01:28:33;6.80;99.90
9311;DHT22;4694;52.464;13.480;2023-12-20T01:31:00;6.70;99.90
9311;DHT22;4694;52.464;13.480;2023-12-20T01:33:27;6.70;99.90
9311;DHT22;4694;52.464;13.480;2023-12-20T01:35:53;6.80;99.90
9311;DHT22;4694;52.464;13.480;2023-12-20T01:38:20;6.80;99.90
9311;DHT22;4694;52.464;13.480;2023-12-20T01:40:48;6.80;99.90
9311;DHT22;4694;52.464;13.480;2023-12-20T01:43:15;6.90;99.90
9311;DHT22;4694;52.464;13.480;2023-12-20T01:45:41;6.80;99.90
9311;DHT22;4694;52.464;13.480;2023-12-20T01:48:10;6.80;99.90
9311;DHT22;4694;52.464;13.480;2023-12-20T01:50:37;6.80;99.90
9311;DHT22;4694;52.464;13.480;2023-12-20T01:53:05;6.70;99.90
9311;DHT22;4694;52.464;13.480;2023-12-20T01:55:35;6.80;99.90
9311;DHT22;4694;52.464;13.480;2023-12-20T01:58:04;6.90;99.90
9311;DHT22;4694;52.464;13.480;2023-12-20T02:00:31;6.90;99.90
9311;DHT22;4694;52.464;13.480;2023-12-20T02:03:01;6.80;99.90
9311;DHT22;4694;52.464;13.480;2023-12-20T02:05:28;6.90;99.90
9311;DHT22;4694;52.464;13.480;2023-12-20T02:11:17;6.90;99.90
9311;DHT22;4694;52.464;13.480;2023-12-20T02:13:46;7.00;99.90
9311;DHT22;4694;52.464;13.480;2023-12-20T02:16:12;6.90;99.90
9311;DHT22;4694;52.464;13.480;2023-12-20T02:18:39;6.90;99.90
9311;DHT22;4694;52.464;13.480;2023-12-20T02:21:06;7.00;99.90
9311;DHT22;4694;52.464;13.480;2023-12-20T02:23:34;6.90;99.90
9311;DHT22;4694;52.464;13.480;2023-12-20T02:26:01;6.90;99.90
9311;DHT22;4694;52.464;13.480;2023-12-20T02:28:27;7.10;99.90
9311;DHT22;4694;52.464;13.480;2023-12-20T02:30:54;7.00;99.90
9311;DHT22;4694;52.464;13.480;2023-12-20T02:33:21;7.00;99.90
9311;DHT22;4694;52.464;13.480;2023-12-20T02:35:47;7.10;99.90
9311;DHT22;4694;52.464;13.480;2023-12-20T02:38:14;7.20;99.90
9311;DHT22;4694;52.464;13.480;2023-12-20T02:40:42;7.10;99.90
9311;DHT22;4694;52.464;13.480;2023-12-20T02:43:08;7.10;99.90
9311;DHT22;4694;52.464;13.480;2023-12-20T02:45:35;7.20;99.90
9311;DHT22;4694;52.464;13.480;2023-12-20T02:48:04;7.10;99.90
9311;DHT22;4694;52.464;13.480;2023-12-20T02:50:30;7.10;99.90
9311;DHT22;4694;52.464;13.480;2023-12-20T02:52:57;7.10;99.90
9311;DHT22;4694;52.464;13.480;2023-12-20T02:55:24;7.10;99.90
9311;DHT22;4694;52.464;13.480;2023-12-20T02:57:51;7.10;99.90
9311;DHT22;4694;52.464;13.480;2023-12-20T03:00:18;7.20;99.90
9311;DHT22;4694;52.464;13.480;2023-12-20T03:02:45;7.10;99.90
9311;DHT22;4694;52.464;13.480;2023-12-20T03:05:11;7.10;99.90
9311;DHT22;4694;52.464;13.480;2023-12-20T03:07:38;7.20;99.90
9311;DHT22;4694;52.464;13.480;2023-12-20T03:10:05;7.20;99.90
9311;DHT22;4694;52.464;13.480;2023-12-20T03:12:33;7.10;99.90
9311;DHT22;4694;52.464;13.480;2023-12-20T03:15:01;7.20;99.90
9311;DHT22;4694;52.464;13.480;2023-12-20T03:17:27;7.10;99.90
9311;DHT22;4694;52.464;13.480;2023-12-20T03:19:54;7.10;99.90
9311;DHT22;4694;52.464;13.480;2023-12-20T03:22:21;7.10;99.90
9311;DHT22;4694;52.464;13.480;2023-12-20T03:24:47;7.00;99.90
9311;DHT22;4694;52.464;13.480;2023-12-20T03:27:14;7.00;99.90
9311;DHT22;4694;52.464;13.480;2023-12-20T03:29:41;7.00;99.90
9311;DHT22;4694;52.464;13.480;2023-12-20T03:32:09;6.90;99.90
9311;DHT22;4694;52.464;13.480;2023-12-20T03:34:35;6.90;99.90
9311;DHT22;4694;52.464;13.480;2023-12-20T03:37:02;7.00;99.90
9311;DHT22;4694;52.464;13.480;2023-12-20T03:39:29;6.90;99.90
9311;DHT22;4694;52.464;13.480;2023-12-20T03:41:55;6.90;99.90
9311;DHT22;4694;52.464;13.480;2023-12-20T03:44:22;6.90;99.90
9311;DHT22;4694;52.464;13.480;2023-12-20T03:46:49;6.90;99.90
9311;DHT22;4694;52.464;13.480;2023-12-20T03:49:16;6.90;99.90
9311;DHT22;4694;52.464;13.480;2023-12-20T03:51:43;6.90;99.90
9311;DHT22;4694;52.464;13.480;2023-12-20T03:54:10;6.90;99.90
9311;DHT22;4694;52.464;13.480;2023-12-20T03:56:36;6.90;99.90
9311;DHT22;4694;52.464;13.480;2023-12-20T03:59:03;6.90;99.90
9311;DHT22;4694;52.464;13.480;2023-12-20T04:01:29;6.90;99.90
9311;DHT22;4694;52.464;13.480;2023-12-20T04:03:56;6.80;99.90
9311;DHT22;4694;52.464;13.480;2023-12-20T04:06:24;6.80;99.90
9311;DHT22;4694;52.464;13.480;2023-12-20T04:08:52;6.80;99.90
9311;DHT22;4694;52.464;13.480;2023-12-20T04:11:19;6.80;99.90
9311;DHT22;4694;52.464;13.480;2023-12-20T04:13:45;6.80;99.90
9311;DHT22;4694;52.464;13.480;2023-12-20T04:16:12;6.90;99.90
9311;DHT22;4694;52.464;13.480;2023-12-20T04:18:39;6.80;99.90
9311;DHT22;4694;52.464;13.480;2023-12-20T04:21:05;6.70;99.90
9311;DHT22;4694;52.464;13.480;2023-12-20T04:23:34;6.70;99.90
9311;DHT22;4694;52.464;13.480;2023-12-20T04:26:00;6.70;99.90
9311;DHT22;4694;52.464;13.480;2023-12-20T04:28:27;6.90;99.90
9311;DHT22;4694;52.464;13.480;2023-12-20T04:30:55;6.80;99.90
9311;DHT22;4694;52.464;13.480;2023-12-20T04:33:22;6.80;99.90
9311;DHT22;4694;52.464;13.480;2023-12-20T04:35:49;6.80;99.90
9311;DHT22;4694;52.464;13.480;2023-12-20T04:38:16;6.70;99.90
9311;DHT22;4694;52.464;13.480;2023-12-20T04:40:43;6.70;99.90
9311;DHT22;4694;52.464;13.480;2023-12-20T04:43:10;6.60;99.90
9311;DHT22;4694;52.464;13.480;2023-12-20T04:45:37;6.60;99.90
9311;DHT22;4694;52.464;13.480;2023-12-20T04:48:06;6.70;99.90
9311;DHT22;4694;52.464;13.480;2023-12-20T04:50:32;6.60;99.90
9311;DHT22;4694;52.464;13.480;2023-12-20T04:52:59;6.60;99.90
9311;DHT22;4694;52.464;13.480;2023-12-20T04:55:26;6.50;99.90
9311;DHT22;4694;52.464;13.480;2023-12-20T04:57:54;6.50;99.90
9311;DHT22;4694;52.464;13.480;2023-12-20T05:00:22;6.40;99.90
9311;DHT22;4694;52.464;13.480;2023-12-20T05:02:48;6.40;99.90
9311;DHT22;4694;52.464;13.480;2023-12-20T05:05:15;6.30;99.90
9311;DHT22;4694;52.464;13.480;2023-12-20T05:07:43;6.30;99.90
9311;DHT22;4694;52.464;13.480;2023-12-20T05:10:10;6.30;99.90
9311;DHT22;4694;52.464;13.480;2023-12-20T05:12:36;6.20;99.90
9311;DHT22;4694;52.464;13.480;2023-12-20T05:15:06;6.20;99.90
9311;DHT22;4694;52.464;13.480;2023-12-20T05:17:32;6.20;99.90
9311;DHT22;4694;52.464;13.480;2023-12-20T05:20:00;6.20;99.90
9311;DHT22;4694;52.464;13.480;2023-12-20T05:22:27;6.20;99.90
9311;DHT22;4694;52.464;13.480;2023-12-20T05:24:53;6.20;99.90
9311;DHT22;4694;52.464;13.480;2023-12-20T05:27:20;6.10;99.90
9311;DHT22;4694;52.464;13.480;2023-12-20T05:29:47;6.10;99.90
9311;DHT22;4694;52.464;13.480;2023-12-20T05:32:15;6.10;99.90
9311;DHT22;4694;52.464;13.480;2023-12-20T05:34:42;6.10;99.90
9311;DHT22;4694;52.464;13.480;2023-12-20T05:37:08;6.10;99.90
9311;DHT22;4694;52.464;13.480;2023-12-20T05:39:35;6.00;99.90
9311;DHT22;4694;52.464;13.480;2023-12-20T05:42:02;6.10;99.90
9311;DHT22;4694;52.464;13.480;2023-12-20T05:44:28;6.00;99.90
9311;DHT22;4694;52.464;13.480;2023-12-20T05:46:55;5.90;99.90
9311;DHT22;4694;52.464;13.480;2023-12-20T05:49:23;5.90;99.90
9311;DHT22;4694;52.464;13.480;2023-12-20T05:51:50;5.90;99.90
9311;DHT22;4694;52.464;13.480;2023-12-20T05:54:17;5.80;99.90
9311;DHT22;4694;52.464;13.480;2023-12-20T05:56:43;5.80;99.90
9311;DHT22;4694;52.464;13.480;2023-12-20T05:59:10;5.70;99.90
9311;DHT22;4694;52.464;13.480;2023-12-20T06:01:37;5.70;99.90
9311;DHT22;4694;52.464;13.480;2023-12-20T06:04:03;5.60;99.90
9311;DHT22;4694;52.464;13.480;2023-12-20T06:06:31;5.50;99.90
9311;DHT22;4694;52.464;13.480;2023-12-20T06:08:59;5.60;99.90
9311;DHT22;4694;52.464;13.480;2023-12-20T06:11:28;5.50;99.90
9311;DHT22;4694;52.464;13.480;2023-12-20T06:13:54;5.50;99.90
9311;DHT22;4694;52.464;13.480;2023-12-20T06:16:21;5.50;99.90
9311;DHT22;4694;52.464;13.480;2023-12-20T06:18:48;5.40;99.90
9311;DHT22;4694;52.464;13.480;2023-12-20T06:21:14;5.40;99.90
9311;DHT22;4694;52.464;13.480;2023-12-20T06:23:42;5.40;99.90
9311;DHT22;4694;52.464;13.480;2023-12-20T06:26:09;5.40;99.90
9311;DHT22;4694;52.464;13.480;2023-12-20T06:28:36;5.40;99.90
9311;DHT22;4694;52.464;13.480;2023-12-20T06:31:03;5.50;99.90
9311;DHT22;4694;52.464;13.480;2023-12-20T06:33:30;5.40;99.90
9311;DHT22;4694;52.464;13.480;2023-12-20T06:35:57;5.40;99.90
9311;DHT22;4694;52.464;13.480;2023-12-20T06:38:24;5.40;99.90
9311;DHT22;4694;52.464;13.480;2023-12-20T06:40:53;5.50;99.90
9311;DHT22;4694;52.464;13.480;2023-12-20T06:43:24;5.50;99.90
9311;DHT22;4694;52.464;13.480;2023-12-20T06:45:50;5.40;99.90
9311;DHT22;4694;52.464;13.480;2023-12-20T06:48:17;5.40;99.90
9311;DHT22;4694;52.464;13.480;2023-12-20T06:50:43;5.50;99.90
9311;DHT22;4694;52.464;13.480;2023-12-20T06:53:10;5.50;99.90
9311;DHT22;4694;52.464;13.480;2023-12-20T06:55:37;5.50;99.90
9311;DHT22;4694;52.464;13.480;2023-12-20T06:58:05;5.50;99.90
9311;DHT22;4694;52.464;13.480;2023-12-20T07:00:32;5.50;99.90
9311;DHT22;4694;52.464;13.480;2023-12-20T07:02:59;5.60;99.90
9311;DHT22;4694;52.464;13.480;2023-12-20T07:05:25;6.10;99.90
9311;DHT22;4694;52.464;13.480;2023-12-20T07:07:52;6.60;99.90
9311;DHT22;4694;52.464;13.480;2023-12-20T07:10:19;7.20;99.90
9311;DHT22;4694;52.464;13.480;2023-12-20T07:12:45;7.00;99.90
9311;DHT22;4694;52.464;13.480;2023-12-20T07:15:15;6.70;99.90
9311;DHT22;4694;52.464;13.480;2023-12-20T07:17:42;6.50;99.90
9311;DHT22;4694;52.464;13.480;2023-12-20T07:20:10;6.30;99.90
9311;DHT22;4694;52.464;13.480;2023-12-20T07:22:36;6.20;99.90
9311;DHT22;4694;52.464;13.480;2023-12-20T07:25:03;6.20;99.90
9311;DHT22;4694;52.464;13.480;2023-12-20T07:27:30;6.00;99.90
9311;DHT22;4694;52.464;13.480;2023-12-20T07:29:57;6.00;99.90
9311;DHT22;4694;52.464;13.480;2023-12-20T07:32:25;5.90;99.90
9311;DHT22;4694;52.464;13.480;2023-12-20T07:34:53;5.90;99.90
9311;DHT22;4694;52.464;13.480;2023-12-20T07:37:20;5.90;99.90
9311;DHT22;4694;52.464;13.480;2023-12-20T07:39:48;5.90;99.90
9311;DHT22;4694;52.464;13.480;2023-12-20T07:42:14;5.90;99.90
9311;DHT22;4694;52.464;13.480;2023-12-20T07:44:41;5.90;99.90
9311;DHT22;4694;52.464;13.480;2023-12-20T07:47:11;5.90;99.90
9311;DHT22;4694;52.464;13.480;2023-12-20T07:49:42;5.90;99.90
9311;DHT22;4694;52.464;13.480;2023-12-20T07:52:08;5.90;99.90
9311;DHT22;4694;52.464;13.480;2023-12-20T07:54:38;6.10;99.90
9311;DHT22;4694;52.464;13.480;2023-12-20T07:57:05;6.00;99.90
9311;DHT22;4694;52.464;13.480;2023-12-20T07:59:31;6.00;99.90
9311;DHT22;4694;52.464;13.480;2023-12-20T08:01:58;6.10;99.90
9311;DHT22;4694;52.464;13.480;2023-12-20T08:04:24;6.00;99.90
9311;DHT22;4694;52.464;13.480;2023-12-20T08:06:52;6.00;99.90
9311;DHT22;4694;52.464;13.480;2023-12-20T08:09:19;6.00;99.90
9311;DHT22;4694;52.464;13.480;2023-12-20T08:11:46;6.00;99.90
9311;DHT22;4694;52.464;13.480;2023-12-20T08:14:13;6.10;99.90
9311;DHT22;4694;52.464;13.480;2023-12-20T08:16:39;6.10;99.90
9311;DHT22;4694;52.464;13.480;2023-12-20T08:19:06;6.10;99.90
9311;DHT22;4694;52.464;13.480;2023-12-20T08:21:33;6.10;99.90
9311;DHT22;4694;52.464;13.480;2023-12-20T08:24:01;6.10;99.90
9311;DHT22;4694;52.464;13.480;2023-12-20T08:26:28;6.10;99.90
9311;DHT22;4694;52.464;13.480;2023-12-20T08:28:55;6.20;99.90
9311;DHT22;4694;52.464;13.480;2023-12-20T08:31:21;6.20;99.90
9311;DHT22;4694;52.464;13.480;2023-12-20T08:33:49;6.20;99.90
9311;DHT22;4694;52.464;13.480;2023-12-20T08:36:15;6.10;99.90
9311;DHT22;4694;52.464;13.480;2023-12-20T08:38:43;6.20;99.90
9311;DHT22;4694;52.464;13.480;2023-12-20T08:41:11;6.20;99.90
9311;DHT22;4694;52.464;13.480;2023-12-20T08:43:38;6.20;99.90
9311;DHT22;4694;52.464;13.480;2023-12-20T08:46:05;6.30;99.90
9311;DHT22;4694;52.464;13.480;2023-12-20T08:48:32;5.80;99.90
9311;DHT22;4694;52.464;13.480;2023-12-20T08:50:59;6.30;99.90
9311;DHT22;4694;52.464;13.480;2023-12-20T08:53:25;6.40;99.90
9311;DHT22;4694;52.464;13.480;2023-12-20T08:55:52;6.40;99.90
9311;DHT22;4694;52.464;13.480;2023-12-20T08:58:20;6.50;99.90
9311;DHT22;4694;52.464;13.480;2023-12-20T09:00:47;6.70;99.90
9311;DHT22;4694;52.464;13.480;2023-12-20T09:03:13;6.70;99.90
9311;DHT22;4694;52.464;13.480;2023-12-20T09:05:40;6.80;99.90
9311;DHT22;4694;52.464;13.480;2023-12-20T09:08:07;6.80;99.90
9311;DHT22;4694;52.464;13.480;2023-12-20T09:10:35;6.90;99.90
9311;DHT22;4694;52.464;13.480;2023-12-20T09:13:02;6.90;99.90
9311;DHT22;4694;52.464;13.480;2023-12-20T09:15:30;6.80;99.90
9311;DHT22;4694;52.464;13.480;2023-12-20T09:17:59;6.80;99.90
9311;DHT22;4694;52.464;13.480;2023-12-20T09:20:26;6.90;99.90
9311;DHT22;4694;52.464;13.480;2023-12-20T09:22:53;6.80;99.90
9311;DHT22;4694;52.464;13.480;2023-12-20T09:25:19;6.90;99.90
9311;DHT22;4694;52.464;13.480;2023-12-20T09:27:47;6.90;99.90
9311;DHT22;4694;52.464;13.480;2023-12-20T09:30:14;7.00;99.90
9311;DHT22;4694;52.464;13.480;2023-12-20T09:32:42;6.90;99.90
9311;DHT22;4694;52.464;13.480;2023-12-20T09:35:09;6.90;99.90
9311;DHT22;4694;52.464;13.480;2023-12-20T09:37:35;6.90;99.90
9311;DHT22;4694;52.464;13.480;2023-12-20T09:40:02;6.90;99.90
9311;DHT22;4694;52.464;13.480;2023-12-20T09:42:33;6.80;99.90
9311;DHT22;4694;52.464;13.480;2023-12-20T09:45:04;6.80;99.90
9311;DHT22;4694;52.464;13.480;2023-12-20T09:47:35;6.70;99.90
9311;DHT22;4694;52.464;13.480;2023-12-20T09:50:03;6.70;99.90
9311;DHT22;4694;52.464;13.480;2023-12-20T09:52:30;6.70;99.90
9311;DHT22;4694;52.464;13.480;2023-12-20T09:54:58;6.80;99.90
9311;DHT22;4694;52.464;13.480;2023-12-20T09:57:24;6.80;99.90
9311;DHT22;4694;52.464;13.480;2023-12-20T09:59:51;6.90;99.90
9311;DHT22;4694;52.464;13.480;2023-12-20T10:02:21;6.90;99.90
9311;DHT22;4694;52.464;13.480;2023-12-20T10:04:50;6.90;99.90
9311;DHT22;4694;52.464;13.480;2023-12-20T10:07:18;6.80;99.90
9311;DHT22;4694;52.464;13.480;2023-12-20T10:09:46;6.90;99.90
9311;DHT22;4694;52.464;13.480;2023-12-20T10:12:12;6.90;99.90
9311;DHT22;4694;52.464;13.480;2023-12-20T10:14:39;7.00;99.90
9311;DHT22;4694;52.464;13.480;2023-12-20T10:17:06;7.00;99.90
9311;DHT22;4694;52.464;13.480;2023-12-20T10:19:33;7.00;99.90
9311;DHT22;4694;52.464;13.480;2023-12-20T10:22:03;7.00;99.90
9311;DHT22;4694;52.464;13.480;2023-12-20T10:24:32;7.10;99.90
9311;DHT22;4694;52.464;13.480;2023-12-20T10:27:02;7.10;99.90
9311;DHT22;4694;52.464;13.480;2023-12-20T10:29:32;7.00;99.90
9311;DHT22;4694;52.464;13.480;2023-12-20T10:31:59;7.10;99.90
9311;DHT22;4694;52.464;13.480;2023-12-20T10:34:26;7.00;99.90
9311;DHT22;4694;52.464;13.480;2023-12-20T10:36:52;7.10;99.90
9311;DHT22;4694;52.464;13.480;2023-12-20T10:39:21;7.10;99.90
9311;DHT22;4694;52.464;13.480;2023-12-20T10:41:49;7.20;99.90
9311;DHT22;4694;52.464;13.480;2023-12-20T10:44:16;7.10;99.90
9311;DHT22;4694;52.464;13.480;2023-12-20T10:46:43;7.10;99.90
9311;DHT22;4694;52.464;13.480;2023-12-20T10:49:17;7.20;99.90
9311;DHT22;4694;52.464;13.480;2023-12-20T10:51:46;7.30;99.90
9311;DHT22;4694;52.464;13.480;2023-12-20T10:54:14;7.40;99.90
9311;DHT22;4694;52.464;13.480;2023-12-20T10:56:41;7.50;99.90
9311;DHT22;4694;52.464;13.480;2023-12-20T10:59:11;7.70;99.90
9311;DHT22;4694;52.464;13.480;2023-12-20T11:01:38;7.80;99.90
9311;DHT22;4694;52.464;13.480;2023-12-20T11:04:09;7.70;99.90
9311;DHT22;4694;52.464;13.480;2023-12-20T11:06:45;7.70;99.90
9311;DHT22;4694;52.464;13.480;2023-12-20T11:09:19;7.60;99.90
9311;DHT22;4694;52.464;13.480;2023-12-20T11:11:59;7.60;99.90
9311;DHT22;4694;52.464;13.480;2023-12-20T11:14:35;7.60;99.90
9311;DHT22;4694;52.464;13.480;2023-12-20T11:17:06;7.50;99.90
9311;DHT22;4694;52.464;13.480;2023-12-20T11:19:36;7.50;99.90
9311;DHT22;4694;52.464;13.480;2023-12-20T11:22:03;7.60;99.90
9311;DHT22;4694;52.464;13.480;2023-12-20T11:24:32;7.40;99.90
9311;DHT22;4694;52.464;13.480;2023-12-20T11:27:00;7.40;99.90
9311;DHT22;4694;52.464;13.480;2023-12-20T11:29:32;7.30;99.90
9311;DHT22;4694;52.464;13.480;2023-12-20T11:32:01;7.30;99.90
9311;DHT22;4694;52.464;13.480;2023-12-20T11:34:28;7.30;99.90
9311;DHT22;4694;52.464;13.480;2023-12-20T11:36:59;7.30;99.90
9311;DHT22;4694;52.464;13.480;2023-12-20T11:39:26;7.30;99.90
9311;DHT22;4694;52.464;13.480;2023-12-20T11:41:55;7.30;99.90
9311;DHT22;4694;52.464;13.480;2023-12-20T11:44:22;7.30;99.90
9311;DHT22;4694;52.464;13.480;2023-12-20T11:46:50;7.30;99.90
9311;DHT22;4694;52.464;13.480;2023-12-20T11:49:17;7.20;99.90
9311;DHT22;4694;52.464;13.480;2023-12-20T11:51:44;7.20;99.90
9311;DHT22;4694;52.464;13.480;2023-12-20T11:54:10;7.20;99.90
9311;DHT22;4694;52.464;13.480;2023-12-20T11:56:37;7.20;99.90
9311;DHT22;4694;52.464;13.480;2023-12-20T11:59:04;7.30;99.90
9311;DHT22;4694;52.464;13.480;2023-12-20T12:01:31;7.30;99.90
9311;DHT22;4694;52.464;13.480;2023-12-20T12:04:06;7.30;99.90
9311;DHT22;4694;52.464;13.480;2023-12-20T12:06:33;7.30;99.90
9311;DHT22;4694;52.464;13.480;2023-12-20T12:09:00;7.40;99.90
9311;DHT22;4694;52.464;13.480;2023-12-20T12:11:28;7.30;99.90
9311;DHT22;4694;52.464;13.480;2023-12-20T12:13:54;7.40;99.90
9311;DHT22;4694;52.464;13.480;2023-12-20T12:16:21;7.40;99.90
9311;DHT22;4694;52.464;13.480;2023-12-20T12:18:55;7.20;99.90
9311;DHT22;4694;52.464;13.480;2023-12-20T12:21:23;7.20;99.90
9311;DHT22;4694;52.464;13.480;2023-12-20T12:23:50;7.30;99.90
9311;DHT22;4694;52.464;13.480;2023-12-20T12:26:17;7.40;99.90
9311;DHT22;4694;52.464;13.480;2023-12-20T12:28:43;7.20;99.90
9311;DHT22;4694;52.464;13.480;2023-12-20T12:31:13;7.40;99.90
9311;DHT22;4694;52.464;13.480;2023-12-20T12:33:41;7.30;99.90
9311;DHT22;4694;52.464;13.480;2023-12-20T12:36:10;7.70;99.90
9311;DHT22;4694;52.464;13.480;2023-12-20T12:38:39;7.30;99.90
9311;DHT22;4694;52.464;13.480;2023-12-20T12:41:05;7.30;99.90
9311;DHT22;4694;52.464;13.480;2023-12-20T12:43:32;7.00;99.90
9311;DHT22;4694;52.464;13.480;2023-12-20T12:45:59;7.00;99.90
9311;DHT22;4694;52.464;13.480;2023-12-20T12:48:27;6.90;99.90
9311;DHT22;4694;52.464;13.480;2023-12-20T12:50:53;6.80;99.90
9311;DHT22;4694;52.464;13.480;2023-12-20T12:53:24;6.70;99.90
9311;DHT22;4694;52.464;13.480;2023-12-20T12:55:52;6.80;99.90
9311;DHT22;4694;52.464;13.480;2023-12-20T12:58:19;6.60;99.90
9311;DHT22;4694;52.464;13.480;2023-12-20T13:00:45;6.50;99.90
9311;DHT22;4694;52.464;13.480;2023-12-20T13:03:12;6.30;99.90
9311;DHT22;4694;52.464;13.480;2023-12-20T13:05:39;6.40;99.90
9311;DHT22;4694;52.464;13.480;2023-12-20T13:08:06;6.40;99.90
9311;DHT22;4694;52.464;13.480;2023-12-20T13:10:32;6.40;99.90
9311;DHT22;4694;52.464;13.480;2023-12-20T13:13:00;6.40;99.90
9311;DHT22;4694;52.464;13.480;2023-12-20T13:15:27;6.30;99.90
9311;DHT22;4694;52.464;13.480;2023-12-20T13:17:54;6.30;99.90
9311;DHT22;4694;52.464;13.480;2023-12-20T13:20:21;6.20;99.90
9311;DHT22;4694;52.464;13.480;2023-12-20T13:22:48;6.20;99.90
9311;DHT22;4694;52.464;13.480;2023-12-20T13:25:14;6.20;99.90
9311;DHT22;4694;52.464;13.480;2023-12-20T13:27:41;6.20;99.90
9311;DHT22;4694;52.464;13.480;2023-12-20T13:30:11;6.10;99.90
9311;DHT22;4694;52.464;13.480;2023-12-20T13:32:37;6.10;99.90
9311;DHT22;4694;52.464;13.480;2023-12-20T13:35:05;6.20;99.90
9311;DHT22;4694;52.464;13.480;2023-12-20T13:37:31;6.20;99.90
9311;DHT22;4694;52.464;13.480;2023-12-20T13:39:58;6.20;99.90
9311;DHT22;4694;52.464;13.480;2023-12-20T13:42:24;6.20;99.90
9311;DHT22;4694;52.464;13.480;2023-12-20T13:44:52;6.00;99.90
9311;DHT22;4694;52.464;13.480;2023-12-20T13:47:20;5.90;99.90
9311;DHT22;4694;52.464;13.480;2023-12-20T13:49:47;5.80;99.90
9311;DHT22;4694;52.464;13.480;2023-12-20T13:52:13;5.60;99.90
9311;DHT22;4694;52.464;13.480;2023-12-20T13:54:40;5.50;99.90
9311;DHT22;4694;52.464;13.480;2023-12-20T13:57:07;5.50;99.90
9311;DHT22;4694;52.464;13.480;2023-12-20T13:59:34;5.40;99.90
9311;DHT22;4694;52.464;13.480;2023-12-20T14:02:00;5.40;99.90
9311;DHT22;4694;52.464;13.480;2023-12-20T14:04:30;5.30;99.90
9311;DHT22;4694;52.464;13.480;2023-12-20T14:06:57;5.30;99.90
9311;DHT22;4694;52.464;13.480;2023-12-20T14:09:23;5.30;99.90
9311;DHT22;4694;52.464;13.480;2023-12-20T14:11:50;5.30;99.90
9311;DHT22;4694;52.464;13.480;2023-12-20T14:14:17;5.30;99.90
9311;DHT22;4694;52.464;13.480;2023-12-20T14:16:43;5.30;99.90
9311;DHT22;4694;52.464;13.480;2023-12-20T14:19:12;5.40;99.90
9311;DHT22;4694;52.464;13.480;2023-12-20T14:21:39;5.20;99.90
9311;DHT22;4694;52.464;13.480;2023-12-20T14:24:06;5.20;99.90
9311;DHT22;4694;52.464;13.480;2023-12-20T14:26:33;5.20;99.90
9311;DHT22;4694;52.464;13.480;2023-12-20T14:29:00;5.10;99.90
9311;DHT22;4694;52.464;13.480;2023-12-20T14:31:26;5.20;99.90
9311;DHT22;4694;52.464;13.480;2023-12-20T14:33:53;5.10;99.90
9311;DHT22;4694;52.464;13.480;2023-12-20T14:36:22;5.10;99.90
9311;DHT22;4694;52.464;13.480;2023-12-20T14:38:50;5.10;99.90
9311;DHT22;4694;52.464;13.480;2023-12-20T14:41:16;5.10;99.90
9311;DHT22;4694;52.464;13.480;2023-12-20T14:43:44;5.10;99.90
9311;DHT22;4694;52.464;13.480;2023-12-20T14:46:12;5.20;99.90
9311;DHT22;4694;52.464;13.480;2023-12-20T14:48:41;5.10;99.90
9311;DHT22;4694;52.464;13.480;2023-12-20T14:51:08;5.20;99.90
9311;DHT22;4694;52.464;13.480;2023-12-20T14:53:36;5.30;99.90
9311;DHT22;4694;52.464;13.480;2023-12-20T14:56:05;5.30;99.90
9311;DHT22;4694;52.464;13.480;2023-12-20T14:58:32;5.30;99.90
9311;DHT22;4694;52.464;13.480;2023-12-20T15:00:59;5.40;99.90
9311;DHT22;4694;52.464;13.480;2023-12-20T15:03:26;5.40;99.90
9311;DHT22;4694;52.464;13.480;2023-12-20T15:05:54;5.40;99.90
9311;DHT22;4694;52.464;13.480;2023-12-20T15:08:25;5.50;99.90
9311;DHT22;4694;52.464;13.480;2023-12-20T15:10:53;5.50;99.90
9311;DHT22;4694;52.464;13.480;2023-12-20T15:13:22;5.50;99.90
9311;DHT22;4694;52.464;13.480;2023-12-20T15:15:52;5.50;99.90
9311;DHT22;4694;52.464;13.480;2023-12-20T15:18:23;5.50;99.90
9311;DHT22;4694;52.464;13.480;2023-12-20T15:20:50;5.40;99.90
9311;DHT22;4694;52.464;13.480;2023-12-20T15:23:17;5.50;99.90
9311;DHT22;4694;52.464;13.480;2023-12-20T15:25:45;5.50;99.90
9311;DHT22;4694;52.464;13.480;2023-12-20T15:28:12;5.50;99.90
9311;DHT22;4694;52.464;13.480;2023-12-20T15:30:40;5.50;99.90
9311;DHT22;4694;52.464;13.480;2023-12-20T15:33:07;5.50;99.90
9311;DHT22;4694;52.464;13.480;2023-12-20T15:35:33;5.40;99.90
9311;DHT22;4694;52.464;13.480;2023-12-20T15:38:00;5.40;99.90
9311;DHT22;4694;52.464;13.480;2023-12-20T15:40:28;5.40;99.90
9311;DHT22;4694;52.464;13.480;2023-12-20T15:42:54;5.40;99.90
9311;DHT22;4694;52.464;13.480;2023-12-20T15:45:21;5.40;99.90
9311;DHT22;4694;52.464;13.480;2023-12-20T15:47:49;5.40;99.90
9311;DHT22;4694;52.464;13.480;2023-12-20T15:50:16;5.40;99.90
9311;DHT22;4694;52.464;13.480;2023-12-20T15:52:43;5.30;99.90
9311;DHT22;4694;52.464;13.480;2023-12-20T15:55:10;5.30;99.90
9311;DHT22;4694;52.464;13.480;2023-12-20T15:57:36;5.30;99.90
9311;DHT22;4694;52.464;13.480;2023-12-20T16:00:06;5.30;99.90
9311;DHT22;4694;52.464;13.480;2023-12-20T16:02:33;5.30;99.90
9311;DHT22;4694;52.464;13.480;2023-12-20T16:05:01;5.30;99.90